Time;durP1;ratioP1;P1;durP2;ratioP2;P2;SDS_P1;SDS_P2;PMS_P1;PMS_P2;Temp;Humidity;BMP_temperature;BMP_pressure;BME280_temperature;BME280_humidity;BME280_pressure;Samples;Min_cycle;Max_cycle;Signal;HPM_P1;HPM_P2
2023/09/30 00:01:00;;;;;;;9.30;3.80;;;17.70;76.20;;;;;;5023474;28;20521;-70
2023/09/30 00:03:26;;;;;;;8.23;3.43;;;17.70;76.10;;;;;;5030240;28;20564;-70
2023/09/30 00:05:52;;;;;;;9.97;4.30;;;17.80;76.10;;;;;;5021508;28;20502;-70
2023/09/30 00:08:17;;;;;;;9.87;4.73;;;17.80;75.90;;;;;;5029190;28;20191;-71
2023/09/30 00:10:43;;;;;;;8.70;3.57;;;17.80;76.10;;;;;;5026226;28;20444;-71
2023/09/30 00:13:09;;;;;;;10.63;3.93;;;17.80;76.10;;;;;;5031891;28;20236;-72
2023/09/30 00:15:34;;;;;;;9.93;3.50;;;17.80;75.80;;;;;;5023209;28;20249;-72
2023/09/30 00:18:01;;;;;;;8.03;3.80;;;17.90;75.80;;;;;;5031284;28;20692;-72
2023/09/30 00:20:27;;;;;;;8.03;4.00;;;17.80;75.90;;;;;;5031301;28;20201;-71
2023/09/30 00:22:53;;;;;;;11.47;4.43;;;17.90;75.90;;;;;;5029407;28;21071;-71
2023/09/30 00:25:20;;;;;;;9.13;4.30;;;17.80;76.20;;;;;;5021720;28;20502;-71
2023/09/30 00:27:46;;;;;;;7.03;3.60;;;17.90;75.90;;;;;;5028194;28;20179;-72
2023/09/30 00:30:12;;;;;;;6.97;3.47;;;18.00;75.80;;;;;;5027563;28;21214;-71
2023/09/30 00:32:39;;;;;;;9.43;4.00;;;18.00;75.70;;;;;;5029322;28;20190;-71
2023/09/30 00:35:09;;;;;;;7.40;3.53;;;18.00;75.70;;;;;;5025320;28;20291;-71
2023/09/30 00:37:34;;;;;;;12.03;4.03;;;18.10;75.80;;;;;;5028657;28;20411;-70
2023/09/30 00:40:00;;;;;;;7.80;4.03;;;18.10;75.70;;;;;;5032557;28;20426;-69
2023/09/30 00:42:26;;;;;;;8.80;4.20;;;18.10;75.90;;;;;;5031222;28;20223;-69
2023/09/30 00:44:52;;;;;;;7.00;3.33;;;18.10;75.90;;;;;;5027376;28;20187;-69
2023/09/30 00:47:17;;;;;;;7.93;3.40;;;18.10;75.90;;;;;;5027179;28;20430;-68
2023/09/30 00:49:43;;;;;;;6.00;3.30;;;18.00;76.40;;;;;;5031378;28;20534;-70
2023/09/30 00:52:10;;;;;;;8.10;3.27;;;18.00;77.00;;;;;;5030084;28;20215;-69
2023/09/30 00:54:37;;;;;;;7.50;3.50;;;17.90;78.30;;;;;;5026641;28;20665;-69
2023/09/30 00:57:04;;;;;;;6.80;3.53;;;17.80;78.70;;;;;;5022847;28;20487;-69
2023/09/30 00:59:32;;;;;;;7.30;3.30;;;17.80;78.70;;;;;;5028126;28;20423;-70
2023/09/30 01:02:00;;;;;;;7.77;3.37;;;17.80;78.90;;;;;;5027512;28;20447;-70
2023/09/30 01:04:27;;;;;;;6.07;2.90;;;17.80;78.70;;;;;;5021797;28;20581;-70
2023/09/30 01:06:52;;;;;;;5.37;3.03;;;17.80;78.90;;;;;;5025980;28;20484;-70
2023/09/30 01:09:19;;;;;;;5.93;3.40;;;17.80;78.90;;;;;;5031144;28;20463;-70
2023/09/30 01:11:44;;;;;;;6.30;3.00;;;17.70;79.20;;;;;;5028650;28;20261;-71
2023/09/30 01:14:29;;;;;;;4.83;2.90;;;17.70;79.20;;;;;;5027214;28;20561;-70
2023/09/30 01:16:55;;;;;;;5.67;3.53;;;17.70;79.00;;;;;;5025682;28;20294;-70
2023/09/30 01:19:23;;;;;;;5.43;3.10;;;17.70;78.60;;;;;;5029084;28;20426;-69
2023/09/30 01:21:49;;;;;;;5.87;2.97;;;17.60;78.40;;;;;;5031528;28;20936;-70
2023/09/30 01:24:15;;;;;;;6.77;3.20;;;17.60;78.60;;;;;;5031574;28;20472;-70
2023/09/30 01:26:42;;;;;;;7.03;3.33;;;17.60;78.40;;;;;;5028024;28;20201;-70
2023/09/30 01:29:11;;;;;;;9.50;3.50;;;17.60;77.70;;;;;;5026791;28;20438;-68
2023/09/30 01:31:38;;;;;;;4.60;2.80;;;17.50;77.70;;;;;;5026002;28;20491;-69
2023/09/30 01:34:04;;;;;;;6.70;3.57;;;17.50;77.70;;;;;;5029002;28;20430;-68
2023/09/30 01:36:30;;;;;;;7.77;3.90;;;17.50;78.00;;;;;;5024069;28;20470;-69
2023/09/30 01:38:55;;;;;;;8.83;4.47;;;17.50;78.00;;;;;;5024184;28;20174;-69
2023/09/30 01:41:21;;;;;;;8.97;3.57;;;17.50;78.30;;;;;;5020487;28;20309;-70
2023/09/30 01:43:49;;;;;;;9.37;4.03;;;17.50;78.30;;;;;;5027255;28;20301;-69
2023/09/30 01:46:15;;;;;;;7.30;3.40;;;17.50;78.60;;;;;;5018314;28;20258;-70
2023/09/30 01:48:40;;;;;;;6.03;3.03;;;17.50;79.00;;;;;;5024415;28;20408;-70
2023/09/30 01:51:06;;;;;;;9.23;3.47;;;17.50;79.30;;;;;;5026333;28;20182;-69
2023/09/30 01:53:32;;;;;;;4.90;2.90;;;17.50;79.30;;;;;;5023971;28;20186;-70
2023/09/30 01:55:58;;;;;;;5.60;3.27;;;17.50;79.50;;;;;;5017525;28;20239;-71
2023/09/30 01:58:25;;;;;;;4.67;2.97;;;17.50;79.50;;;;;;5022073;28;20987;-72
2023/09/30 02:00:52;;;;;;;7.93;3.47;;;17.50;79.50;;;;;;5022108;28;20426;-71
2023/09/30 02:03:17;;;;;;;6.23;2.90;;;17.50;79.70;;;;;;5023854;28;20476;-71
2023/09/30 02:05:43;;;;;;;5.60;3.40;;;17.50;79.70;;;;;;5019855;28;20462;-70
2023/09/30 02:08:08;;;;;;;7.90;3.70;;;17.50;79.90;;;;;;5030118;28;20189;-70
2023/09/30 02:10:34;;;;;;;7.30;3.60;;;17.50;79.60;;;;;;5030115;28;20197;-70
2023/09/30 02:13:00;;;;;;;7.87;3.50;;;17.50;79.60;;;;;;5029562;28;20181;-71
2023/09/30 02:15:25;;;;;;;8.73;4.27;;;17.50;79.30;;;;;;5025077;28;20285;-71
2023/09/30 02:17:51;;;;;;;8.93;3.63;;;17.50;79.50;;;;;;5027166;28;20181;-70
2023/09/30 02:20:21;;;;;;;10.67;4.20;;;17.50;79.30;;;;;;5028255;28;20557;-71
2023/09/30 02:22:47;;;;;;;7.90;3.80;;;17.40;79.60;;;;;;5025716;28;20501;-71
2023/09/30 02:25:13;;;;;;;7.40;3.97;;;17.30;80.00;;;;;;5021865;28;20490;-70
2023/09/30 02:27:42;;;;;;;9.13;3.70;;;17.30;80.20;;;;;;5023349;28;20392;-71
2023/09/30 02:30:13;;;;;;;8.50;3.40;;;17.20;80.20;;;;;;5030201;28;20233;-70
2023/09/30 02:32:40;;;;;;;6.50;4.03;;;17.20;80.30;;;;;;5031631;28;20420;-71
2023/09/30 02:35:06;;;;;;;4.90;3.50;;;17.20;80.50;;;;;;5026328;28;20463;-71
2023/09/30 02:37:35;;;;;;;7.10;3.73;;;17.20;80.30;;;;;;5033645;28;20874;-71
2023/09/30 02:40:10;;;;;;;6.50;4.10;;;17.30;80.30;;;;;;5031524;28;20486;-70
2023/09/30 02:42:37;;;;;;;13.70;4.90;;;17.20;80.20;;;;;;5029650;28;20813;-70
2023/09/30 02:45:04;;;;;;;8.50;3.90;;;17.20;80.00;;;;;;5025436;28;20527;-70
2023/09/30 02:47:31;;;;;;;8.60;5.00;;;17.10;80.20;;;;;;5027555;28;20421;-70
2023/09/30 02:49:57;;;;;;;12.13;5.30;;;17.10;80.20;;;;;;5029534;28;20421;-69
2023/09/30 02:52:23;;;;;;;9.30;4.47;;;17.10;80.20;;;;;;5028951;28;20424;-69
2023/09/30 02:54:49;;;;;;;9.60;4.97;;;17.10;80.00;;;;;;5025009;28;20440;-69
2023/09/30 02:57:15;;;;;;;8.30;5.00;;;17.10;80.20;;;;;;5025029;28;20444;-70
2023/09/30 02:59:41;;;;;;;11.30;5.13;;;17.10;80.20;;;;;;5027166;28;20182;-69
2023/09/30 03:02:06;;;;;;;8.27;4.40;;;17.10;80.00;;;;;;5031762;28;20431;-69
2023/09/30 03:04:32;;;;;;;8.50;4.97;;;17.00;79.70;;;;;;5029858;28;20178;-70
2023/09/30 03:06:58;;;;;;;9.90;4.27;;;17.00;79.50;;;;;;5027861;28;20327;-70
2023/09/30 03:09:24;;;;;;;9.03;4.60;;;17.10;79.60;;;;;;5030409;28;20189;-70
2023/09/30 03:11:49;;;;;;;7.57;4.20;;;17.10;79.00;;;;;;5028058;28;20193;-71
2023/09/30 03:14:15;;;;;;;9.53;4.80;;;17.10;79.30;;;;;;5029139;28;20455;-71
2023/09/30 03:16:41;;;;;;;7.37;4.13;;;17.10;79.50;;;;;;5026848;28;20238;-70
2023/09/30 03:19:08;;;;;;;8.63;4.40;;;17.00;79.30;;;;;;5028336;28;20193;-71
2023/09/30 03:21:36;;;;;;;11.50;4.33;;;17.10;79.30;;;;;;5033168;28;20447;-71
2023/09/30 03:24:07;;;;;;;9.20;4.03;;;17.10;79.00;;;;;;5032050;28;20471;-71
2023/09/30 03:26:33;;;;;;;12.67;4.17;;;17.10;78.90;;;;;;5027288;28;20473;-70
2023/09/30 03:28:59;;;;;;;12.37;4.27;;;17.20;78.60;;;;;;5031366;28;20466;-70
2023/09/30 03:31:25;;;;;;;11.40;4.50;;;17.20;78.60;;;;;;5030970;28;20451;-71
2023/09/30 03:33:54;;;;;;;10.37;3.67;;;17.10;78.30;;;;;;5031441;28;20274;-71
2023/09/30 03:36:22;;;;;;;7.83;4.77;;;17.10;78.60;;;;;;5026117;28;21050;-71
2023/09/30 03:38:47;;;;;;;8.60;3.63;;;17.20;78.30;;;;;;5030341;28;20416;-71
2023/09/30 03:41:13;;;;;;;7.73;3.77;;;17.20;78.60;;;;;;5032353;28;20922;-71
2023/09/30 03:43:42;;;;;;;7.80;3.83;;;17.10;78.70;;;;;;5028378;28;20826;-70
2023/09/30 03:46:08;;;;;;;8.30;4.40;;;17.10;78.60;;;;;;5025033;28;20277;-69
2023/09/30 03:48:39;;;;;;;9.47;4.90;;;17.10;78.90;;;;;;5026676;28;20763;-69
2023/09/30 03:51:25;;;;;;;9.00;4.23;;;17.20;78.40;;;;;;5027617;28;20468;-70
2023/09/30 03:53:51;;;;;;;8.70;4.07;;;17.20;78.00;;;;;;5031361;28;20424;-71
2023/09/30 03:56:18;;;;;;;9.20;3.80;;;17.20;77.80;;;;;;5027155;28;20826;-70
2023/09/30 03:58:44;;;;;;;10.10;4.27;;;17.20;77.80;;;;;;5023601;28;20424;-70
2023/09/30 04:01:13;;;;;;;10.03;4.50;;;17.20;77.70;;;;;;5027682;28;20428;-70
2023/09/30 04:03:39;;;;;;;12.13;4.60;;;17.20;77.80;;;;;;5025461;28;20551;-70
2023/09/30 04:06:08;;;;;;;7.80;4.37;;;17.20;78.00;;;;;;5025417;28;20464;-70
2023/09/30 04:08:35;;;;;;;8.80;4.37;;;17.10;78.00;;;;;;5022367;28;20511;-70
2023/09/30 04:11:02;;;;;;;9.50;4.27;;;17.10;78.00;;;;;;5025724;28;20417;-70
2023/09/30 04:13:29;;;;;;;7.80;3.90;;;17.10;78.10;;;;;;5022803;28;20429;-70
2023/09/30 04:15:56;;;;;;;10.60;4.00;;;17.00;78.60;;;;;;5022554;28;20551;-71
2023/09/30 04:18:22;;;;;;;8.67;3.70;;;17.00;78.70;;;;;;5026758;28;20443;-70
2023/09/30 04:20:48;;;;;;;14.07;4.00;;;17.00;78.90;;;;;;5028822;28;20425;-70
2023/09/30 04:23:15;;;;;;;9.33;4.07;;;17.00;78.90;;;;;;5030492;28;20468;-71
2023/09/30 04:25:40;;;;;;;9.30;4.03;;;16.90;79.00;;;;;;5020293;28;20513;-71
2023/09/30 04:28:08;;;;;;;10.00;4.67;;;16.80;79.30;;;;;;5025404;28;20420;-70
2023/09/30 04:30:34;;;;;;;12.43;4.80;;;16.90;79.50;;;;;;5027318;28;20195;-70
2023/09/30 04:33:00;;;;;;;11.00;5.07;;;16.80;79.50;;;;;;5025897;28;20424;-70
2023/09/30 04:35:26;;;;;;;8.10;4.43;;;16.80;79.60;;;;;;5025391;28;20216;-70
2023/09/30 04:37:52;;;;;;;6.90;4.00;;;16.90;79.50;;;;;;5027772;28;20446;-70
2023/09/30 04:40:19;;;;;;;11.07;4.40;;;17.00;79.20;;;;;;5027102;28;20187;-69
2023/09/30 04:42:49;;;;;;;8.97;4.50;;;16.90;79.20;;;;;;5028624;28;20507;-71
2023/09/30 04:45:21;;;;;;;11.67;4.57;;;16.90;79.30;;;;;;5020779;28;20982;-70
2023/09/30 04:47:48;;;;;;;8.50;4.00;;;16.80;79.60;;;;;;5023050;28;20424;-70
2023/09/30 04:50:16;;;;;;;8.17;4.23;;;16.90;79.50;;;;;;5021433;28;20862;-71
2023/09/30 04:52:42;;;;;;;8.40;4.60;;;16.80;79.60;;;;;;5028277;28;21269;-70
2023/09/30 04:55:08;;;;;;;8.77;5.17;;;16.80;79.60;;;;;;5022268;28;20461;-70
2023/09/30 04:57:34;;;;;;;7.80;4.80;;;16.90;79.50;;;;;;5028216;28;20412;-69
2023/09/30 05:00:00;;;;;;;8.50;5.07;;;16.80;79.70;;;;;;5024442;28;20409;-70
2023/09/30 05:02:27;;;;;;;8.63;4.50;;;16.80;80.20;;;;;;5028559;28;20181;-68
2023/09/30 05:04:53;;;;;;;10.60;4.40;;;16.80;79.90;;;;;;5025411;28;20450;-68
2023/09/30 05:07:21;;;;;;;8.57;3.80;;;16.80;80.00;;;;;;5028247;28;20432;-70
2023/09/30 05:09:47;;;;;;;8.07;4.90;;;16.80;79.90;;;;;;5031584;28;20940;-70
2023/09/30 05:12:13;;;;;;;8.90;4.70;;;16.70;80.20;;;;;;5032604;28;20418;-69
2023/09/30 05:14:38;;;;;;;6.00;3.93;;;16.70;80.30;;;;;;5032093;28;20210;-71
2023/09/30 05:17:05;;;;;;;6.87;3.80;;;16.70;80.50;;;;;;5034240;28;20230;-69
2023/09/30 05:19:33;;;;;;;8.90;4.23;;;16.70;80.50;;;;;;5039714;28;20188;-69
2023/09/30 05:22:00;;;;;;;7.90;4.27;;;16.70;80.20;;;;;;5037777;28;20459;-70
2023/09/30 05:24:27;;;;;;;9.20;4.63;;;16.70;80.50;;;;;;5031302;28;20504;-69
2023/09/30 05:26:53;;;;;;;13.17;4.70;;;16.80;80.20;;;;;;5030882;28;20461;-70
2023/09/30 05:29:18;;;;;;;12.27;4.50;;;16.80;80.00;;;;;;5032308;28;20446;-68
2023/09/30 05:31:44;;;;;;;12.90;4.97;;;16.80;79.90;;;;;;5028281;28;20681;-70
2023/09/30 05:34:10;;;;;;;9.30;5.10;;;16.80;79.70;;;;;;5027418;28;20700;-70
2023/09/30 05:36:36;;;;;;;9.13;3.83;;;16.90;79.70;;;;;;5026469;28;21006;-69
2023/09/30 05:39:03;;;;;;;9.83;4.77;;;17.00;79.60;;;;;;5025757;28;20416;-68
2023/09/30 05:41:29;;;;;;;9.63;4.60;;;17.00;79.30;;;;;;5030606;28;20204;-71
2023/09/30 05:43:55;;;;;;;11.03;5.07;;;17.00;78.90;;;;;;5026928;28;20467;-69
2023/09/30 05:46:21;;;;;;;8.50;4.03;;;16.90;79.20;;;;;;5019599;28;20457;-70
2023/09/30 05:48:47;;;;;;;6.70;4.40;;;16.90;79.50;;;;;;5025419;28;20997;-70
2023/09/30 05:51:15;;;;;;;8.70;4.33;;;16.90;79.50;;;;;;5023158;28;20425;-70
2023/09/30 05:53:41;;;;;;;7.67;4.27;;;16.90;79.30;;;;;;5029549;28;20430;-69
2023/09/30 05:56:11;;;;;;;9.90;5.13;;;17.00;79.00;;;;;;5029056;28;20455;-70
2023/09/30 05:58:37;;;;;;;7.87;4.70;;;17.00;79.20;;;;;;5024434;28;21003;-70
2023/09/30 06:01:18;;;;;;;11.83;5.00;;;17.00;79.00;;;;;;5023853;28;21015;-69
2023/09/30 06:03:46;;;;;;;12.23;5.27;;;17.00;78.90;;;;;;5018270;28;20531;-70
2023/09/30 06:06:13;;;;;;;9.13;4.70;;;17.00;78.90;;;;;;5023859;28;20463;-69
2023/09/30 06:08:39;;;;;;;7.90;4.40;;;17.00;79.20;;;;;;5029967;28;20424;-69
2023/09/30 06:11:04;;;;;;;7.57;4.40;;;17.00;78.90;;;;;;5030354;28;20474;-70
2023/09/30 06:13:32;;;;;;;10.13;6.10;;;16.90;78.90;;;;;;5029955;28;20189;-71
2023/09/30 06:15:58;;;;;;;10.10;5.07;;;16.90;78.90;;;;;;5021586;28;20206;-71
2023/09/30 06:18:24;;;;;;;11.80;4.80;;;16.90;79.20;;;;;;5029292;28;20429;-72
2023/09/30 06:20:50;;;;;;;10.70;5.00;;;16.90;79.00;;;;;;5029328;28;20184;-71
2023/09/30 06:23:16;;;;;;;9.93;5.40;;;16.80;79.00;;;;;;5024481;28;20756;-70
2023/09/30 06:25:42;;;;;;;8.53;4.73;;;16.80;79.00;;;;;;5024444;28;21086;-72
2023/09/30 06:28:08;;;;;;;12.90;5.00;;;16.80;79.50;;;;;;5022645;28;20516;-70
2023/09/30 06:30:34;;;;;;;9.07;4.80;;;16.80;79.00;;;;;;5028407;28;20447;-70
2023/09/30 06:33:04;;;;;;;10.40;4.97;;;16.80;79.30;;;;;;5020463;28;20925;-70
2023/09/30 06:35:33;;;;;;;9.47;5.00;;;16.80;79.30;;;;;;5022891;28;20237;-69
2023/09/30 06:37:59;;;;;;;8.23;5.03;;;16.80;79.30;;;;;;5031170;28;20416;-70
2023/09/30 06:40:24;;;;;;;7.47;4.80;;;16.80;79.30;;;;;;5031456;28;20425;-70
2023/09/30 06:42:51;;;;;;;9.30;5.10;;;16.90;79.20;;;;;;5029279;28;20463;-71
2023/09/30 06:45:17;;;;;;;10.77;5.60;;;16.90;78.90;;;;;;5026619;28;20344;-70
2023/09/30 06:47:45;;;;;;;11.07;4.73;;;16.90;78.70;;;;;;5034868;28;20506;-70
2023/09/30 06:50:16;;;;;;;8.90;4.90;;;16.90;78.90;;;;;;5032830;28;20189;-69
2023/09/30 06:52:42;;;;;;;10.60;5.30;;;17.00;78.90;;;;;;5032470;28;20415;-71
2023/09/30 06:55:08;;;;;;;8.83;4.63;;;17.00;78.60;;;;;;5028721;28;20462;-70
2023/09/30 06:57:37;;;;;;;9.80;5.37;;;17.00;78.70;;;;;;5030246;28;20463;-69
2023/09/30 07:00:11;;;;;;;11.50;5.50;;;17.00;78.90;;;;;;5029795;28;20866;-70
2023/09/30 07:02:37;;;;;;;13.00;5.40;;;17.00;78.90;;;;;;5031651;28;20472;-70
2023/09/30 07:05:08;;;;;;;8.80;4.90;;;17.10;78.60;;;;;;5024477;28;20464;-70
2023/09/30 07:07:33;;;;;;;10.23;5.50;;;17.10;78.30;;;;;;5030212;28;20943;-70
2023/09/30 07:09:59;;;;;;;17.07;5.23;;;17.10;78.40;;;;;;5030188;28;20433;-72
2023/09/30 07:12:25;;;;;;;13.53;5.43;;;17.20;78.10;;;;;;5033385;28;20212;-70
2023/09/30 07:14:50;;;;;;;12.10;5.57;;;17.40;77.70;;;;;;5022115;28;20182;-71
2023/09/30 07:17:16;;;;;;;13.67;5.90;;;17.50;77.00;;;;;;5027662;28;20189;-70
2023/09/30 07:19:41;;;;;;;10.80;4.93;;;17.50;76.80;;;;;;5025878;28;20190;-70
2023/09/30 07:22:07;;;;;;;9.17;4.80;;;17.40;76.70;;;;;;5027639;28;20187;-69
2023/09/30 07:24:32;;;;;;;11.33;4.90;;;17.30;77.10;;;;;;5020615;28;20807;-70
2023/09/30 07:26:59;;;;;;;10.23;4.83;;;17.30;77.30;;;;;;5019778;28;20704;-69
2023/09/30 07:29:24;;;;;;;12.07;5.00;;;17.40;77.10;;;;;;5026373;28;20222;-70
2023/09/30 07:31:50;;;;;;;11.03;4.60;;;17.40;77.10;;;;;;5033100;28;20444;-68
2023/09/30 07:34:16;;;;;;;12.50;5.50;;;17.50;77.00;;;;;;5023834;28;20277;-68
2023/09/30 07:36:42;;;;;;;10.27;5.70;;;17.50;77.00;;;;;;5025426;28;20539;-69
2023/09/30 07:39:08;;;;;;;8.83;5.07;;;17.50;77.00;;;;;;5027924;28;20253;-69
2023/09/30 07:41:37;;;;;;;11.77;6.00;;;17.60;77.00;;;;;;5026635;28;20420;-70
2023/09/30 07:44:03;;;;;;;7.67;5.30;;;17.70;76.50;;;;;;5023315;28;20491;-70
2023/09/30 07:46:29;;;;;;;11.13;5.17;;;17.60;76.70;;;;;;5026129;28;20816;-70
2023/09/30 07:48:55;;;;;;;11.43;4.80;;;17.80;76.40;;;;;;5026906;28;20412;-70
2023/09/30 07:51:20;;;;;;;12.43;4.80;;;17.90;76.10;;;;;;5029869;28;20181;-70
2023/09/30 07:53:46;;;;;;;12.00;5.13;;;18.00;75.70;;;;;;5031077;28;20419;-70
2023/09/30 07:56:13;;;;;;;11.97;6.07;;;18.00;75.40;;;;;;5028125;28;20228;-70
2023/09/30 07:58:38;;;;;;;8.83;5.00;;;17.90;75.20;;;;;;5024592;28;20688;-71
2023/09/30 08:01:04;;;;;;;11.50;5.23;;;17.90;75.70;;;;;;5030587;28;20424;-69
2023/09/30 08:03:30;;;;;;;13.97;5.30;;;18.00;75.40;;;;;;5019165;28;20306;-69
2023/09/30 08:05:56;;;;;;;15.53;5.40;;;18.00;75.20;;;;;;5024104;28;20274;-71
2023/09/30 08:08:23;;;;;;;13.93;5.87;;;18.00;75.20;;;;;;5032191;28;20281;-69
2023/09/30 08:10:50;;;;;;;14.27;5.33;;;18.10;75.10;;;;;;5032630;28;20550;-70
2023/09/30 08:13:17;;;;;;;11.30;5.57;;;18.10;74.80;;;;;;5027319;28;20424;-71
2023/09/30 08:15:43;;;;;;;11.80;5.53;;;18.00;74.60;;;;;;5025270;28;20820;-70
2023/09/30 08:18:08;;;;;;;12.37;5.80;;;18.00;74.80;;;;;;5029841;28;20831;-69
2023/09/30 08:20:34;;;;;;;12.77;5.97;;;18.00;74.90;;;;;;5025773;28;20244;-68
2023/09/30 08:22:59;;;;;;;11.03;5.40;;;17.90;75.40;;;;;;5026017;28;20215;-70
2023/09/30 08:25:26;;;;;;;15.30;6.30;;;18.00;75.20;;;;;;5021807;28;20205;-71
2023/09/30 08:27:52;;;;;;;10.70;6.20;;;18.10;74.80;;;;;;5026822;28;20563;-71
2023/09/30 08:30:17;;;;;;;15.43;5.60;;;18.20;75.10;;;;;;5026603;28;20449;-69
2023/09/30 08:32:45;;;;;;;12.67;6.00;;;18.40;73.90;;;;;;5026964;28;20486;-69
2023/09/30 08:35:12;;;;;;;13.67;5.77;;;18.40;73.50;;;;;;5026732;28;20857;-70
2023/09/30 08:37:38;;;;;;;11.07;5.67;;;18.50;73.00;;;;;;5028227;28;21659;-69
2023/09/30 08:40:04;;;;;;;14.40;7.17;;;18.50;72.90;;;;;;5029430;28;20422;-69
2023/09/30 08:42:33;;;;;;;12.90;6.00;;;18.40;73.00;;;;;;5029219;28;20193;-69
2023/09/30 08:44:59;;;;;;;14.87;6.27;;;18.50;72.90;;;;;;5026562;28;20420;-69
2023/09/30 08:47:28;;;;;;;10.83;6.10;;;18.50;72.90;;;;;;5027782;28;20964;-70
2023/09/30 08:49:57;;;;;;;9.00;5.90;;;18.40;72.70;;;;;;5028685;28;20570;-70
2023/09/30 08:52:24;;;;;;;10.90;6.10;;;18.30;72.70;;;;;;5027871;28;20449;-69
2023/09/30 08:54:50;;;;;;;11.67;5.30;;;18.10;73.20;;;;;;5025436;28;20414;-69
2023/09/30 08:57:19;;;;;;;8.27;6.00;;;18.00;73.90;;;;;;5024320;28;20441;-69
2023/09/30 08:59:48;;;;;;;9.80;5.70;;;18.10;74.50;;;;;;5027717;28;20583;-69
2023/09/30 09:02:14;;;;;;;12.47;6.90;;;18.10;73.70;;;;;;5023916;28;20428;-69
2023/09/30 09:04:39;;;;;;;12.80;6.53;;;18.00;74.00;;;;;;5029197;28;20529;-69
2023/09/30 09:07:05;;;;;;;13.10;6.47;;;18.00;74.20;;;;;;5030712;28;20186;-69
2023/09/30 09:09:32;;;;;;;12.30;6.50;;;17.90;74.30;;;;;;5034527;28;20193;-68
2023/09/30 09:11:58;;;;;;;14.27;6.87;;;18.10;74.30;;;;;;5024364;28;20194;-69
2023/09/30 09:14:46;;;;;;;13.77;6.50;;;18.20;73.70;;;;;;5028252;28;20536;-69
2023/09/30 09:17:12;;;;;;;14.70;6.03;;;18.40;73.00;;;;;;5025930;28;20449;-69
2023/09/30 09:19:37;;;;;;;13.07;6.10;;;18.50;72.70;;;;;;5027048;28;20564;-70
2023/09/30 09:22:06;;;;;;;14.70;6.30;;;18.50;72.10;;;;;;5030621;28;20177;-71
2023/09/30 09:24:33;;;;;;;11.43;6.00;;;18.50;72.40;;;;;;5029222;28;20310;-71
2023/09/30 09:27:07;;;;;;;10.60;5.47;;;18.50;72.60;;;;;;5027430;28;20457;-70
2023/09/30 09:29:34;;;;;;;11.87;5.60;;;18.70;71.80;;;;;;5030256;28;20522;-70
2023/09/30 09:32:17;;;;;;;10.23;5.17;;;18.90;71.40;;;;;;5029788;28;20414;-69
2023/09/30 09:34:44;;;;;;;11.23;5.50;;;19.20;70.40;;;;;;5024545;28;20415;-71
2023/09/30 09:37:20;;;;;;;8.47;5.53;;;19.30;69.70;;;;;;5026786;28;20443;-70
2023/09/30 09:39:51;;;;;;;12.23;5.23;;;19.40;69.80;;;;;;5025431;28;20459;-69
2023/09/30 09:42:31;;;;;;;11.83;5.43;;;19.50;69.50;;;;;;5027673;28;20478;-70
2023/09/30 09:45:02;;;;;;;16.47;6.27;;;19.70;68.60;;;;;;5023755;28;20428;-69
2023/09/30 09:47:29;;;;;;;10.23;5.07;;;19.90;67.90;;;;;;5024044;28;20513;-70
2023/09/30 09:49:57;;;;;;;10.90;5.00;;;20.10;67.60;;;;;;5025431;28;20437;-69
2023/09/30 09:52:24;;;;;;;10.20;5.20;;;20.20;67.00;;;;;;5019996;28;20438;-71
2023/09/30 09:54:50;;;;;;;10.00;5.13;;;20.30;66.60;;;;;;5022396;28;20444;-73
2023/09/30 09:57:20;;;;;;;7.87;4.90;;;20.50;66.30;;;;;;5021297;28;20480;-69
2023/09/30 09:59:47;;;;;;;10.60;5.10;;;20.50;65.70;;;;;;5023762;28;20460;-69
2023/09/30 10:02:14;;;;;;;8.33;5.10;;;20.60;65.40;;;;;;5022907;28;20425;-69
2023/09/30 10:04:47;;;;;;;8.87;4.90;;;20.70;65.40;;;;;;5027395;28;21017;-69
2023/09/30 10:07:21;;;;;;;10.33;5.43;;;20.80;65.00;;;;;;5019923;28;20456;-69
2023/09/30 10:09:50;;;;;;;12.83;5.27;;;20.80;64.50;;;;;;5021795;28;20429;-70
2023/09/30 10:12:16;;;;;;;8.43;4.70;;;20.80;64.70;;;;;;5029727;28;20431;-70
2023/09/30 10:14:42;;;;;;;11.13;5.47;;;21.00;64.80;;;;;;5027425;28;21291;-69
2023/09/30 10:17:08;;;;;;;9.33;5.00;;;21.00;64.50;;;;;;5023733;28;20442;-70
2023/09/30 10:19:33;;;;;;;12.00;6.00;;;21.10;64.10;;;;;;5027062;28;20186;-69
2023/09/30 10:22:21;;;;;;;7.57;4.70;;;20.90;63.70;;;;;;5026883;28;20182;-69
2023/09/30 10:24:48;;;;;;;10.03;5.53;;;20.90;63.20;;;;;;5022580;28;20273;-70
2023/09/30 10:27:31;;;;;;;14.37;5.30;;;20.70;63.10;;;;;;5022428;28;20537;-69
2023/09/30 10:30:22;;;;;;;12.83;5.07;;;20.60;63.10;;;;;;5025353;28;20456;-68
2023/09/30 10:32:51;;;;;;;12.10;5.43;;;20.90;63.10;;;;;;5022874;28;20457;-71
2023/09/30 10:35:20;;;;;;;13.10;5.60;;;21.50;62.30;;;;;;5019174;28;20464;-71
2023/09/30 10:37:46;;;;;;;8.07;5.03;;;22.00;61.70;;;;;;5031224;28;20443;-71
2023/09/30 10:40:33;;;;;;;17.50;5.50;;;22.50;61.30;;;;;;5032808;28;20591;-71
2023/09/30 10:43:02;;;;;;;10.00;5.00;;;22.70;60.60;;;;;;5030455;28;20468;-69
2023/09/30 10:45:44;;;;;;;10.90;5.30;;;22.50;61.00;;;;;;5026134;28;20454;-70
2023/09/30 10:48:25;;;;;;;10.80;5.50;;;22.70;61.00;;;;;;5027570;28;20485;-69
2023/09/30 10:50:56;;;;;;;11.20;5.40;;;22.90;60.30;;;;;;5031245;28;20422;-69
2023/09/30 10:53:23;;;;;;;9.80;5.40;;;22.80;61.00;;;;;;5029907;28;20426;-70
2023/09/30 10:55:57;;;;;;;10.13;5.73;;;22.80;61.20;;;;;;5028801;28;21063;-70
2023/09/30 10:58:39;;;;;;;16.00;5.30;;;22.50;61.00;;;;;;5028273;28;20519;-70
2023/09/30 11:01:05;;;;;;;11.30;5.43;;;21.80;62.20;;;;;;5024433;28;20423;-70
2023/09/30 11:03:31;;;;;;;12.73;5.70;;;21.30;62.80;;;;;;5026744;28;20933;-70
2023/09/30 11:05:56;;;;;;;18.00;6.03;;;20.80;63.90;;;;;;5028930;28;20203;-68
2023/09/30 11:08:23;;;;;;;11.53;5.43;;;20.70;64.50;;;;;;5030480;28;20192;-67
2023/09/30 11:10:52;;;;;;;13.70;5.70;;;20.70;64.80;;;;;;5030171;28;20193;-70
2023/09/30 11:13:18;;;;;;;10.50;6.07;;;20.90;64.70;;;;;;5025571;28;20463;-70
2023/09/30 11:15:45;;;;;;;8.87;5.20;;;21.10;64.10;;;;;;5023061;28;20542;-71
2023/09/30 11:18:18;;;;;;;11.90;5.17;;;21.20;63.50;;;;;;5027000;28;20459;-70
2023/09/30 11:20:44;;;;;;;10.80;6.00;;;21.30;62.90;;;;;;5027361;28;20415;-71
2023/09/30 11:23:14;;;;;;;10.33;5.10;;;21.30;63.20;;;;;;5028220;28;20482;-70
2023/09/30 11:25:41;;;;;;;10.50;5.33;;;21.70;62.20;;;;;;5030589;28;20969;-70
2023/09/30 11:28:16;;;;;;;10.97;5.57;;;22.00;61.50;;;;;;5027126;28;20480;-71
2023/09/30 11:31:06;;;;;;;11.80;5.47;;;22.40;61.20;;;;;;5034721;28;20853;-71
2023/09/30 11:33:33;;;;;;;13.50;5.83;;;22.90;59.30;;;;;;5027734;28;20433;-71
2023/09/30 11:36:02;;;;;;;13.53;5.93;;;22.90;57.70;;;;;;5022837;28;20518;-70
2023/09/30 11:38:29;;;;;;;14.80;6.53;;;23.10;56.80;;;;;;5032541;28;20431;-69
2023/09/30 11:41:03;;;;;;;10.17;4.60;;;23.20;58.10;;;;;;5036494;28;20432;-70
2023/09/30 11:43:30;;;;;;;12.87;5.40;;;23.30;57.60;;;;;;5033631;28;20462;-69
2023/09/30 11:46:05;;;;;;;9.80;5.40;;;23.10;58.40;;;;;;5020399;28;20452;-70
2023/09/30 11:48:31;;;;;;;11.30;5.50;;;23.50;58.10;;;;;;5032607;28;20498;-70
2023/09/30 11:51:00;;;;;;;9.67;5.37;;;24.10;57.30;;;;;;5032697;28;20450;-69
2023/09/30 11:53:26;;;;;;;8.37;4.97;;;24.60;55.80;;;;;;5033217;28;20225;-69
2023/09/30 11:55:54;;;;;;;8.43;5.00;;;24.50;55.80;;;;;;5032595;28;20477;-70
2023/09/30 11:58:20;;;;;;;15.60;6.63;;;24.50;56.10;;;;;;5034268;28;20224;-70
2023/09/30 12:00:46;;;;;;;11.10;5.80;;;24.50;55.70;;;;;;5038155;28;20424;-69
2023/09/30 12:03:11;;;;;;;10.13;4.93;;;24.10;56.50;;;;;;5036390;28;20225;-70
2023/09/30 12:05:37;;;;;;;11.60;6.13;;;24.30;56.60;;;;;;5030431;28;20597;-69
2023/09/30 12:08:03;;;;;;;13.43;5.20;;;24.50;55.60;;;;;;5034182;28;20548;-69
2023/09/30 12:10:30;;;;;;;10.10;5.13;;;24.10;56.40;;;;;;5032195;28;20193;-69
2023/09/30 12:12:56;;;;;;;11.17;5.57;;;23.70;56.00;;;;;;5035571;28;20418;-69
2023/09/30 12:15:22;;;;;;;10.80;5.60;;;23.20;57.00;;;;;;5028250;28;20459;-68
2023/09/30 12:17:47;;;;;;;11.47;5.00;;;22.90;57.20;;;;;;5031850;28;20580;-69
2023/09/30 12:20:15;;;;;;;10.67;5.10;;;22.60;58.10;;;;;;5030456;28;20518;-69
2023/09/30 12:22:40;;;;;;;11.93;5.70;;;22.50;58.00;;;;;;5036032;28;20195;-70
2023/09/30 12:25:08;;;;;;;13.90;6.10;;;22.10;57.60;;;;;;5029054;28;20494;-70
2023/09/30 12:27:34;;;;;;;10.53;5.33;;;22.10;58.50;;;;;;5035698;28;20182;-70
2023/09/30 12:29:59;;;;;;;10.27;5.87;;;22.20;58.90;;;;;;5036741;28;20664;-70
2023/09/30 12:32:26;;;;;;;12.60;5.27;;;22.20;58.90;;;;;;5040050;28;20430;-71
2023/09/30 12:34:53;;;;;;;13.20;6.17;;;22.20;59.50;;;;;;5034467;28;20238;-69
2023/09/30 12:37:18;;;;;;;13.20;5.37;;;22.20;59.20;;;;;;5037337;28;20430;-69
2023/09/30 12:39:45;;;;;;;9.67;5.20;;;22.10;59.60;;;;;;5038115;28;20488;-69
2023/09/30 12:42:12;;;;;;;10.40;5.73;;;22.10;60.00;;;;;;5037710;28;20245;-70